sensor_id;sensor_type;location;lat;lon;timestamp;P1;durP1;ratioP1;P2;durP2;ratioP2
55003;SDS011;40900;52.710;6.438;2023-04-25T00:01:22;36.58;;;5.95;;
55003;SDS011;40900;52.710;6.438;2023-04-25T00:03:48;35.08;;;7.57;;
55003;SDS011;40900;52.710;6.438;2023-04-25T00:06:14;32.25;;;6.72;;
55003;SDS011;40900;52.710;6.438;2023-04-25T00:08:40;30.45;;;6.07;;
55003;SDS011;40900;52.710;6.438;2023-04-25T00:11:06;22.23;;;5.90;;
55003;SDS011;40900;52.710;6.438;2023-04-25T00:13:31;29.02;;;6.53;;
55003;SDS011;40900;52.710;6.438;2023-04-25T00:15:57;28.92;;;6.82;;
55003;SDS011;40900;52.710;6.438;2023-04-25T00:18:23;30.45;;;5.88;;
55003;SDS011;40900;52.710;6.438;2023-04-25T00:20:49;23.38;;;5.20;;
55003;SDS011;40900;52.710;6.438;2023-04-25T00:23:15;31.83;;;6.32;;
55003;SDS011;40900;52.710;6.438;2023-04-25T00:25:47;25.38;;;6.25;;
55003;SDS011;40900;52.710;6.438;2023-04-25T00:28:13;33.10;;;6.47;;
55003;SDS011;40900;52.710;6.438;2023-04-25T00:30:40;26.48;;;5.10;;
55003;SDS011;40900;52.710;6.438;2023-04-25T00:33:06;23.02;;;5.80;;
55003;SDS011;40900;52.710;6.438;2023-04-25T00:35:32;29.42;;;6.88;;
55003;SDS011;40900;52.710;6.438;2023-04-25T00:37:58;20.90;;;5.68;;
55003;SDS011;40900;52.710;6.438;2023-04-25T00:40:24;28.17;;;5.72;;
55003;SDS011;40900;52.710;6.438;2023-04-25T00:42:51;28.33;;;6.28;;
55003;SDS011;40900;52.710;6.438;2023-04-25T00:45:18;22.73;;;6.10;;
55003;SDS011;40900;52.710;6.438;2023-04-25T00:47:44;22.00;;;4.80;;
55003;SDS011;40900;52.710;6.438;2023-04-25T00:50:10;29.88;;;5.25;;
55003;SDS011;40900;52.710;6.438;2023-04-25T00:52:37;31.83;;;5.57;;
55003;SDS011;40900;52.710;6.438;2023-04-25T00:55:05;31.90;;;6.15;;
55003;SDS011;40900;52.710;6.438;2023-04-25T00:57:32;28.95;;;5.63;;
55003;SDS011;40900;52.710;6.438;2023-04-25T00:59:58;25.17;;;5.82;;
55003;SDS011;40900;52.710;6.438;2023-04-25T01:02:24;21.65;;;5.28;;
55003;SDS011;40900;52.710;6.438;2023-04-25T01:04:52;35.25;;;6.53;;
55003;SDS011;40900;52.710;6.438;2023-04-25T01:07:18;28.63;;;5.65;;
55003;SDS011;40900;52.710;6.438;2023-04-25T01:09:45;26.60;;;5.75;;
55003;SDS011;40900;52.710;6.438;2023-04-25T01:12:11;27.80;;;6.20;;
55003;SDS011;40900;52.710;6.438;2023-04-25T01:14:37;28.30;;;6.20;;
55003;SDS011;40900;52.710;6.438;2023-04-25T01:17:03;23.42;;;7.32;;
55003;SDS011;40900;52.710;6.438;2023-04-25T01:19:29;26.08;;;6.70;;
55003;SDS011;40900;52.710;6.438;2023-04-25T01:21:55;26.88;;;6.05;;
55003;SDS011;40900;52.710;6.438;2023-04-25T01:24:22;28.13;;;5.45;;
55003;SDS011;40900;52.710;6.438;2023-04-25T01:26:48;28.80;;;5.35;;
55003;SDS011;40900;52.710;6.438;2023-04-25T01:29:15;19.63;;;5.15;;
55003;SDS011;40900;52.710;6.438;2023-04-25T01:31:45;22.77;;;5.45;;
55003;SDS011;40900;52.710;6.438;2023-04-25T01:34:11;26.70;;;5.25;;
55003;SDS011;40900;52.710;6.438;2023-04-25T01:36:37;23.23;;;5.53;;
55003;SDS011;40900;52.710;6.438;2023-04-25T01:39:03;22.98;;;5.43;;
55003;SDS011;40900;52.710;6.438;2023-04-25T01:41:29;24.65;;;5.53;;
55003;SDS011;40900;52.710;6.438;2023-04-25T01:43:55;21.38;;;5.57;;
55003;SDS011;40900;52.710;6.438;2023-04-25T01:46:21;27.50;;;6.72;;
55003;SDS011;40900;52.710;6.438;2023-04-25T01:48:46;28.42;;;6.03;;
55003;SDS011;40900;52.710;6.438;2023-04-25T01:51:12;24.83;;;5.63;;
55003;SDS011;40900;52.710;6.438;2023-04-25T01:53:38;27.90;;;5.10;;
55003;SDS011;40900;52.710;6.438;2023-04-25T01:56:04;23.23;;;4.97;;
55003;SDS011;40900;52.710;6.438;2023-04-25T01:58:30;16.45;;;4.35;;
55003;SDS011;40900;52.710;6.438;2023-04-25T02:00:56;19.92;;;5.20;;
55003;SDS011;40900;52.710;6.438;2023-04-25T02:03:22;33.10;;;6.00;;
55003;SDS011;40900;52.710;6.438;2023-04-25T02:05:47;24.50;;;5.10;;
55003;SDS011;40900;52.710;6.438;2023-04-25T02:08:13;17.42;;;5.85;;
55003;SDS011;40900;52.710;6.438;2023-04-25T02:10:39;22.77;;;5.13;;
55003;SDS011;40900;52.710;6.438;2023-04-25T02:13:05;28.55;;;4.97;;
55003;SDS011;40900;52.710;6.438;2023-04-25T02:15:31;20.00;;;5.05;;
55003;SDS011;40900;52.710;6.438;2023-04-25T02:17:57;22.42;;;5.68;;
55003;SDS011;40900;52.710;6.438;2023-04-25T02:20:23;17.48;;;4.93;;
55003;SDS011;40900;52.710;6.438;2023-04-25T02:22:50;16.83;;;5.35;;
55003;SDS011;40900;52.710;6.438;2023-04-25T02:25:16;20.58;;;5.50;;
55003;SDS011;40900;52.710;6.438;2023-04-25T02:27:44;20.85;;;5.20;;
55003;SDS011;40900;52.710;6.438;2023-04-25T02:30:11;19.90;;;4.75;;
55003;SDS011;40900;52.710;6.438;2023-04-25T02:32:37;27.77;;;5.63;;
55003;SDS011;40900;52.710;6.438;2023-04-25T02:35:03;24.75;;;5.47;;
55003;SDS011;40900;52.710;6.438;2023-04-25T02:37:33;20.63;;;4.70;;
55003;SDS011;40900;52.710;6.438;2023-04-25T02:40:00;17.75;;;4.80;;
55003;SDS011;40900;52.710;6.438;2023-04-25T02:42:27;24.40;;;5.20;;
55003;SDS011;40900;52.710;6.438;2023-04-25T02:44:53;24.85;;;5.47;;
55003;SDS011;40900;52.710;6.438;2023-04-25T02:47:19;21.95;;;5.65;;
55003;SDS011;40900;52.710;6.438;2023-04-25T02:49:45;20.27;;;4.60;;
55003;SDS011;40900;52.710;6.438;2023-04-25T02:52:11;22.27;;;4.95;;
55003;SDS011;40900;52.710;6.438;2023-04-25T02:54:38;20.55;;;5.28;;
55003;SDS011;40900;52.710;6.438;2023-04-25T02:57:05;30.08;;;6.35;;
55003;SDS011;40900;52.710;6.438;2023-04-25T02:59:30;21.10;;;4.05;;
55003;SDS011;40900;52.710;6.438;2023-04-25T03:01:56;17.02;;;3.97;;
55003;SDS011;40900;52.710;6.438;2023-04-25T03:04:22;16.15;;;3.60;;
55003;SDS011;40900;52.710;6.438;2023-04-25T03:06:52;19.38;;;3.90;;
55003;SDS011;40900;52.710;6.438;2023-04-25T03:09:18;17.70;;;3.67;;
55003;SDS011;40900;52.710;6.438;2023-04-25T03:11:45;19.48;;;3.78;;
55003;SDS011;40900;52.710;6.438;2023-04-25T03:14:11;23.30;;;4.57;;
55003;SDS011;40900;52.710;6.438;2023-04-25T03:16:37;18.20;;;3.28;;
55003;SDS011;40900;52.710;6.438;2023-04-25T03:19:03;23.00;;;3.83;;
55003;SDS011;40900;52.710;6.438;2023-04-25T03:21:30;20.80;;;4.00;;
55003;SDS011;40900;52.710;6.438;2023-04-25T03:24:02;16.27;;;3.83;;
55003;SDS011;40900;52.710;6.438;2023-04-25T03:26:29;20.98;;;4.05;;
55003;SDS011;40900;52.710;6.438;2023-04-25T03:28:54;20.25;;;4.68;;
55003;SDS011;40900;52.710;6.438;2023-04-25T03:31:20;13.70;;;3.85;;
55003;SDS011;40900;52.710;6.438;2023-04-25T03:33:47;27.52;;;4.93;;
55003;SDS011;40900;52.710;6.438;2023-04-25T03:36:13;17.48;;;3.92;;
55003;SDS011;40900;52.710;6.438;2023-04-25T03:38:38;19.75;;;4.90;;
55003;SDS011;40900;52.710;6.438;2023-04-25T03:41:06;20.63;;;4.63;;
55003;SDS011;40900;52.710;6.438;2023-04-25T03:43:32;21.65;;;4.45;;
55003;SDS011;40900;52.710;6.438;2023-04-25T03:45:58;16.73;;;4.55;;
55003;SDS011;40900;52.710;6.438;2023-04-25T03:48:23;24.10;;;4.20;;
55003;SDS011;40900;52.710;6.438;2023-04-25T03:50:51;20.88;;;4.18;;
55003;SDS011;40900;52.710;6.438;2023-04-25T03:53:17;24.63;;;3.97;;
55003;SDS011;40900;52.710;6.438;2023-04-25T03:55:42;18.67;;;3.92;;
55003;SDS011;40900;52.710;6.438;2023-04-25T03:58:08;22.02;;;4.32;;
55003;SDS011;40900;52.710;6.438;2023-04-25T04:00:34;15.68;;;3.67;;
55003;SDS011;40900;52.710;6.438;2023-04-25T04:03:00;13.20;;;3.17;;
55003;SDS011;40900;52.710;6.438;2023-04-25T04:05:26;20.40;;;4.10;;
55003;SDS011;40900;52.710;6.438;2023-04-25T04:07:52;14.90;;;2.95;;
55003;SDS011;40900;52.710;6.438;2023-04-25T04:10:18;13.98;;;3.53;;
55003;SDS011;40900;52.710;6.438;2023-04-25T04:12:44;18.23;;;3.05;;
55003;SDS011;40900;52.710;6.438;2023-04-25T04:15:10;19.63;;;4.13;;
55003;SDS011;40900;52.710;6.438;2023-04-25T04:17:36;13.65;;;3.50;;
55003;SDS011;40900;52.710;6.438;2023-04-25T04:20:02;12.57;;;3.35;;
55003;SDS011;40900;52.710;6.438;2023-04-25T04:22:29;10.63;;;2.97;;
55003;SDS011;40900;52.710;6.438;2023-04-25T04:24:54;11.27;;;2.80;;
55003;SDS011;40900;52.710;6.438;2023-04-25T04:27:21;16.33;;;3.17;;
55003;SDS011;40900;52.710;6.438;2023-04-25T04:29:48;12.52;;;2.90;;
55003;SDS011;40900;52.710;6.438;2023-04-25T04:32:14;19.45;;;3.67;;
55003;SDS011;40900;52.710;6.438;2023-04-25T04:34:40;10.73;;;3.00;;
55003;SDS011;40900;52.710;6.438;2023-04-25T04:37:06;12.07;;;2.92;;
55003;SDS011;40900;52.710;6.438;2023-04-25T04:39:36;19.75;;;3.70;;
55003;SDS011;40900;52.710;6.438;2023-04-25T04:42:02;20.45;;;4.25;;
55003;SDS011;40900;52.710;6.438;2023-04-25T04:44:28;20.02;;;4.53;;
55003;SDS011;40900;52.710;6.438;2023-04-25T04:46:58;13.43;;;3.10;;
55003;SDS011;40900;52.710;6.438;2023-04-25T04:49:24;15.38;;;3.28;;
55003;SDS011;40900;52.710;6.438;2023-04-25T04:51:50;17.10;;;3.33;;
55003;SDS011;40900;52.710;6.438;2023-04-25T04:54:15;13.20;;;3.10;;
55003;SDS011;40900;52.710;6.438;2023-04-25T04:56:41;18.30;;;3.38;;
55003;SDS011;40900;52.710;6.438;2023-04-25T04:59:07;12.27;;;2.70;;
55003;SDS011;40900;52.710;6.438;2023-04-25T05:01:33;15.18;;;3.10;;
55003;SDS011;40900;52.710;6.438;2023-04-25T05:04:02;14.23;;;3.05;;
55003;SDS011;40900;52.710;6.438;2023-04-25T05:06:28;13.68;;;2.88;;
55003;SDS011;40900;52.710;6.438;2023-04-25T05:08:55;14.77;;;3.28;;
55003;SDS011;40900;52.710;6.438;2023-04-25T05:11:22;14.48;;;3.50;;
55003;SDS011;40900;52.710;6.438;2023-04-25T05:13:49;11.15;;;2.92;;
55003;SDS011;40900;52.710;6.438;2023-04-25T05:16:16;20.20;;;3.30;;
55003;SDS011;40900;52.710;6.438;2023-04-25T05:18:42;13.07;;;2.97;;
55003;SDS011;40900;52.710;6.438;2023-04-25T05:21:08;11.35;;;2.75;;
55003;SDS011;40900;52.710;6.438;2023-04-25T05:23:33;14.88;;;3.35;;
55003;SDS011;40900;52.710;6.438;2023-04-25T05:25:59;17.50;;;3.22;;
55003;SDS011;40900;52.710;6.438;2023-04-25T05:28:25;20.77;;;3.20;;
55003;SDS011;40900;52.710;6.438;2023-04-25T05:30:51;15.10;;;3.45;;
55003;SDS011;40900;52.710;6.438;2023-04-25T05:33:17;17.38;;;3.80;;
55003;SDS011;40900;52.710;6.438;2023-04-25T05:35:43;16.40;;;2.90;;
55003;SDS011;40900;52.710;6.438;2023-04-25T05:38:09;9.43;;;2.10;;
55003;SDS011;40900;52.710;6.438;2023-04-25T05:40:35;13.90;;;2.50;;
55003;SDS011;40900;52.710;6.438;2023-04-25T05:43:00;13.90;;;2.58;;
55003;SDS011;40900;52.710;6.438;2023-04-25T05:45:26;17.08;;;3.30;;
55003;SDS011;40900;52.710;6.438;2023-04-25T05:47:52;10.73;;;2.40;;
55003;SDS011;40900;52.710;6.438;2023-04-25T05:50:18;17.80;;;2.70;;
55003;SDS011;40900;52.710;6.438;2023-04-25T05:52:43;11.35;;;2.17;;
55003;SDS011;40900;52.710;6.438;2023-04-25T05:55:09;15.85;;;2.60;;
55003;SDS011;40900;52.710;6.438;2023-04-25T05:57:35;13.82;;;3.17;;
55003;SDS011;40900;52.710;6.438;2023-04-25T06:00:00;12.65;;;2.80;;
55003;SDS011;40900;52.710;6.438;2023-04-25T06:02:26;10.80;;;3.22;;
55003;SDS011;40900;52.710;6.438;2023-04-25T06:04:52;14.15;;;2.65;;
55003;SDS011;40900;52.710;6.438;2023-04-25T06:07:18;10.57;;;2.58;;
55003;SDS011;40900;52.710;6.438;2023-04-25T06:09:45;12.60;;;3.25;;
55003;SDS011;40900;52.710;6.438;2023-04-25T06:12:11;13.02;;;3.00;;
55003;SDS011;40900;52.710;6.438;2023-04-25T06:14:36;11.32;;;2.70;;
55003;SDS011;40900;52.710;6.438;2023-04-25T06:17:02;15.20;;;3.20;;
55003;SDS011;40900;52.710;6.438;2023-04-25T06:19:33;12.07;;;3.15;;
55003;SDS011;40900;52.710;6.438;2023-04-25T06:21:59;16.20;;;3.75;;
55003;SDS011;40900;52.710;6.438;2023-04-25T06:24:25;13.60;;;2.28;;
55003;SDS011;40900;52.710;6.438;2023-04-25T06:26:51;10.75;;;3.10;;
55003;SDS011;40900;52.710;6.438;2023-04-25T06:29:17;19.13;;;3.22;;
55003;SDS011;40900;52.710;6.438;2023-04-25T06:31:43;16.77;;;2.90;;
55003;SDS011;40900;52.710;6.438;2023-04-25T06:34:09;13.60;;;2.67;;
55003;SDS011;40900;52.710;6.438;2023-04-25T06:36:35;15.38;;;2.75;;
55003;SDS011;40900;52.710;6.438;2023-04-25T06:39:00;11.15;;;3.17;;
55003;SDS011;40900;52.710;6.438;2023-04-25T06:41:27;9.98;;;2.45;;
55003;SDS011;40900;52.710;6.438;2023-04-25T06:43:52;9.50;;;1.92;;
55003;SDS011;40900;52.710;6.438;2023-04-25T06:46:18;9.73;;;2.40;;
55003;SDS011;40900;52.710;6.438;2023-04-25T06:48:44;11.18;;;2.35;;
55003;SDS011;40900;52.710;6.438;2023-04-25T06:51:10;11.65;;;2.17;;
55003;SDS011;40900;52.710;6.438;2023-04-25T06:53:35;11.75;;;3.03;;
55003;SDS011;40900;52.710;6.438;2023-04-25T06:56:01;10.75;;;2.22;;
55003;SDS011;40900;52.710;6.438;2023-04-25T06:58:28;16.02;;;3.38;;
55003;SDS011;40900;52.710;6.438;2023-04-25T07:00:53;8.25;;;2.40;;
55003;SDS011;40900;52.710;6.438;2023-04-25T07:03:19;13.80;;;2.92;;
55003;SDS011;40900;52.710;6.438;2023-04-25T07:05:45;13.98;;;3.03;;
55003;SDS011;40900;52.710;6.438;2023-04-25T07:08:11;12.75;;;2.67;;
55003;SDS011;40900;52.710;6.438;2023-04-25T07:10:37;15.93;;;2.20;;
55003;SDS011;40900;52.710;6.438;2023-04-25T07:13:03;12.63;;;2.47;;
55003;SDS011;40900;52.710;6.438;2023-04-25T07:15:29;13.70;;;2.35;;
55003;SDS011;40900;52.710;6.438;2023-04-25T07:17:54;10.98;;;2.35;;
55003;SDS011;40900;52.710;6.438;2023-04-25T07:20:20;12.48;;;2.40;;
55003;SDS011;40900;52.710;6.438;2023-04-25T07:22:46;7.32;;;2.08;;
55003;SDS011;40900;52.710;6.438;2023-04-25T07:25:11;10.35;;;2.10;;
55003;SDS011;40900;52.710;6.438;2023-04-25T07:27:37;14.48;;;2.55;;
55003;SDS011;40900;52.710;6.438;2023-04-25T07:30:04;11.65;;;2.78;;
55003;SDS011;40900;52.710;6.438;2023-04-25T07:32:30;13.30;;;2.58;;
55003;SDS011;40900;52.710;6.438;2023-04-25T07:34:56;11.00;;;3.03;;
55003;SDS011;40900;52.710;6.438;2023-04-25T07:37:22;12.30;;;2.20;;
55003;SDS011;40900;52.710;6.438;2023-04-25T07:39:48;17.33;;;2.70;;
55003;SDS011;40900;52.710;6.438;2023-04-25T07:42:13;11.93;;;2.70;;
55003;SDS011;40900;52.710;6.438;2023-04-25T07:44:39;13.65;;;2.30;;
55003;SDS011;40900;52.710;6.438;2023-04-25T07:47:06;10.13;;;1.92;;
55003;SDS011;40900;52.710;6.438;2023-04-25T07:49:32;10.70;;;2.33;;
55003;SDS011;40900;52.710;6.438;2023-04-25T07:51:59;10.55;;;2.00;;
55003;SDS011;40900;52.710;6.438;2023-04-25T07:54:25;8.27;;;2.20;;
55003;SDS011;40900;52.710;6.438;2023-04-25T07:56:51;7.75;;;2.15;;
55003;SDS011;40900;52.710;6.438;2023-04-25T07:59:17;14.57;;;3.50;;
55003;SDS011;40900;52.710;6.438;2023-04-25T08:01:43;10.32;;;2.20;;
55003;SDS011;40900;52.710;6.438;2023-04-25T08:04:09;11.25;;;2.38;;
55003;SDS011;40900;52.710;6.438;2023-04-25T08:06:35;11.05;;;1.80;;
55003;SDS011;40900;52.710;6.438;2023-04-25T08:09:01;9.57;;;2.10;;
55003;SDS011;40900;52.710;6.438;2023-04-25T08:11:28;10.80;;;2.22;;
55003;SDS011;40900;52.710;6.438;2023-04-25T08:13:54;10.27;;;2.20;;
55003;SDS011;40900;52.710;6.438;2023-04-25T08:16:19;10.10;;;2.38;;
55003;SDS011;40900;52.710;6.438;2023-04-25T08:18:45;10.88;;;2.50;;
55003;SDS011;40900;52.710;6.438;2023-04-25T08:21:11;10.82;;;2.28;;
55003;SDS011;40900;52.710;6.438;2023-04-25T08:23:37;9.50;;;1.70;;
55003;SDS011;40900;52.710;6.438;2023-04-25T08:26:03;4.68;;;1.30;;
55003;SDS011;40900;52.710;6.438;2023-04-25T08:28:30;7.25;;;1.70;;
55003;SDS011;40900;52.710;6.438;2023-04-25T08:30:56;7.22;;;1.77;;
55003;SDS011;40900;52.710;6.438;2023-04-25T08:33:22;4.78;;;1.45;;
55003;SDS011;40900;52.710;6.438;2023-04-25T08:35:47;5.05;;;1.50;;
55003;SDS011;40900;52.710;6.438;2023-04-25T08:38:13;4.75;;;1.10;;
55003;SDS011;40900;52.710;6.438;2023-04-25T08:40:39;4.57;;;1.00;;
55003;SDS011;40900;52.710;6.438;2023-04-25T08:43:06;5.18;;;1.20;;
55003;SDS011;40900;52.710;6.438;2023-04-25T08:45:39;3.30;;;1.17;;
55003;SDS011;40900;52.710;6.438;2023-04-25T08:48:07;7.13;;;1.30;;
55003;SDS011;40900;52.710;6.438;2023-04-25T08:50:40;3.47;;;1.40;;
55003;SDS011;40900;52.710;6.438;2023-04-25T08:53:15;3.78;;;1.15;;
55003;SDS011;40900;52.710;6.438;2023-04-25T08:55:45;7.18;;;1.63;;
55003;SDS011;40900;52.710;6.438;2023-04-25T08:58:12;4.43;;;1.30;;
55003;SDS011;40900;52.710;6.438;2023-04-25T09:00:38;5.55;;;1.30;;
55003;SDS011;40900;52.710;6.438;2023-04-25T09:03:04;5.88;;;1.30;;
55003;SDS011;40900;52.710;6.438;2023-04-25T09:05:32;8.23;;;1.42;;
55003;SDS011;40900;52.710;6.438;2023-04-25T09:07:58;6.30;;;1.27;;
55003;SDS011;40900;52.710;6.438;2023-04-25T09:10:26;6.35;;;1.45;;
55003;SDS011;40900;52.710;6.438;2023-04-25T09:15:55;9.52;;;1.60;;
55003;SDS011;40900;52.710;6.438;2023-04-25T09:18:23;7.60;;;1.90;;
55003;SDS011;40900;52.710;6.438;2023-04-25T09:20:57;6.65;;;1.83;;
55003;SDS011;40900;52.710;6.438;2023-04-25T09:23:30;7.85;;;2.03;;
55003;SDS011;40900;52.710;6.438;2023-04-25T09:26:03;6.57;;;2.22;;
55003;SDS011;40900;52.710;6.438;2023-04-25T09:28:31;5.97;;;1.80;;
55003;SDS011;40900;52.710;6.438;2023-04-25T09:30:57;10.52;;;2.00;;
55003;SDS011;40900;52.710;6.438;2023-04-25T09:33:30;9.57;;;2.22;;
55003;SDS011;40900;52.710;6.438;2023-04-25T09:38:40;7.10;;;1.60;;
55003;SDS011;40900;52.710;6.438;2023-04-25T09:41:07;5.45;;;1.83;;
55003;SDS011;40900;52.710;6.438;2023-04-25T09:43:34;7.10;;;1.60;;
55003;SDS011;40900;52.710;6.438;2023-04-25T09:46:01;8.90;;;2.20;;
55003;SDS011;40900;52.710;6.438;2023-04-25T09:48:28;6.65;;;1.98;;
55003;SDS011;40900;52.710;6.438;2023-04-25T09:51:10;8.13;;;2.13;;
55003;SDS011;40900;52.710;6.438;2023-04-25T09:53:47;11.13;;;2.20;;
55003;SDS011;40900;52.710;6.438;2023-04-25T09:56:16;6.13;;;2.00;;
55003;SDS011;40900;52.710;6.438;2023-04-25T09:58:42;9.80;;;2.40;;
55003;SDS011;40900;52.710;6.438;2023-04-25T10:01:08;8.63;;;2.20;;
55003;SDS011;40900;52.710;6.438;2023-04-25T10:03:36;6.97;;;2.22;;
55003;SDS011;40900;52.710;6.438;2023-04-25T10:06:07;6.97;;;2.25;;
55003;SDS011;40900;52.710;6.438;2023-04-25T10:08:41;7.70;;;1.83;;
55003;SDS011;40900;52.710;6.438;2023-04-25T10:11:08;10.25;;;2.10;;
55003;SDS011;40900;52.710;6.438;2023-04-25T10:13:34;9.20;;;1.92;;
55003;SDS011;40900;52.710;6.438;2023-04-25T10:16:02;8.85;;;2.00;;
55003;SDS011;40900;52.710;6.438;2023-04-25T10:18:29;7.60;;;2.03;;
55003;SDS011;40900;52.710;6.438;2023-04-25T10:21:00;8.02;;;2.03;;
55003;SDS011;40900;52.710;6.438;2023-04-25T10:23:27;8.80;;;2.30;;
55003;SDS011;40900;52.710;6.438;2023-04-25T10:25:55;10.85;;;2.20;;
55003;SDS011;40900;52.710;6.438;2023-04-25T10:28:21;9.35;;;2.05;;
55003;SDS011;40900;52.710;6.438;2023-04-25T10:30:57;7.38;;;2.17;;
55003;SDS011;40900;52.710;6.438;2023-04-25T10:33:39;5.97;;;1.60;;
55003;SDS011;40900;52.710;6.438;2023-04-25T10:36:21;6.32;;;1.63;;
55003;SDS011;40900;52.710;6.438;2023-04-25T10:38:48;5.65;;;1.52;;
55003;SDS011;40900;52.710;6.438;2023-04-25T10:41:19;5.45;;;1.60;;
55003;SDS011;40900;52.710;6.438;2023-04-25T10:43:48;6.60;;;1.73;;
55003;SDS011;40900;52.710;6.438;2023-04-25T10:48:55;8.52;;;2.17;;
55003;SDS011;40900;52.710;6.438;2023-04-25T10:51:28;8.93;;;2.22;;
55003;SDS011;40900;52.710;6.438;2023-04-25T10:56:30;4.15;;;1.30;;
55003;SDS011;40900;52.710;6.438;2023-04-25T10:59:13;6.30;;;1.75;;
55003;SDS011;40900;52.710;6.438;2023-04-25T11:01:47;8.25;;;1.70;;
55003;SDS011;40900;52.710;6.438;2023-04-25T11:07:00;5.43;;;1.70;;
55003;SDS011;40900;52.710;6.438;2023-04-25T11:09:29;7.45;;;1.58;;
55003;SDS011;40900;52.710;6.438;2023-04-25T11:11:55;6.85;;;1.80;;
55003;SDS011;40900;52.710;6.438;2023-04-25T11:14:23;8.40;;;1.80;;
55003;SDS011;40900;52.710;6.438;2023-04-25T11:17:08;6.72;;;2.13;;
55003;SDS011;40900;52.710;6.438;2023-04-25T11:19:35;8.00;;;1.90;;
55003;SDS011;40900;52.710;6.438;2023-04-25T11:22:01;9.80;;;2.00;;
55003;SDS011;40900;52.710;6.438;2023-04-25T11:24:31;4.57;;;1.58;;
55003;SDS011;40900;52.710;6.438;2023-04-25T11:27:02;4.53;;;1.55;;
55003;SDS011;40900;52.710;6.438;2023-04-25T11:29:31;9.20;;;1.80;;
55003;SDS011;40900;52.710;6.438;2023-04-25T11:31:59;8.93;;;1.88;;
55003;SDS011;40900;52.710;6.438;2023-04-25T11:34:26;7.10;;;2.33;;
55003;SDS011;40900;52.710;6.438;2023-04-25T11:36:56;5.93;;;1.55;;
55003;SDS011;40900;52.710;6.438;2023-04-25T11:39:23;8.98;;;1.90;;
55003;SDS011;40900;52.710;6.438;2023-04-25T11:41:50;8.55;;;2.22;;
55003;SDS011;40900;52.710;6.438;2023-04-25T11:44:16;7.35;;;2.13;;
55003;SDS011;40900;52.710;6.438;2023-04-25T11:46:43;7.40;;;1.90;;
55003;SDS011;40900;52.710;6.438;2023-04-25T11:49:09;6.60;;;1.92;;
55003;SDS011;40900;52.710;6.438;2023-04-25T11:51:39;5.50;;;1.73;;
55003;SDS011;40900;52.710;6.438;2023-04-25T11:54:05;6.40;;;1.90;;
55003;SDS011;40900;52.710;6.438;2023-04-25T11:56:31;9.38;;;2.03;;
55003;SDS011;40900;52.710;6.438;2023-04-25T11:58:58;4.57;;;1.52;;
55003;SDS011;40900;52.710;6.438;2023-04-25T12:01:28;8.55;;;1.77;;
55003;SDS011;40900;52.710;6.438;2023-04-25T12:03:55;7.80;;;1.83;;
55003;SDS011;40900;52.710;6.438;2023-04-25T12:06:25;8.05;;;1.50;;
55003;SDS011;40900;52.710;6.438;2023-04-25T12:09:02;6.50;;;1.60;;
55003;SDS011;40900;52.710;6.438;2023-04-25T12:11:32;4.68;;;1.38;;
55003;SDS011;40900;52.710;6.438;2023-04-25T12:14:02;8.05;;;1.77;;
55003;SDS011;40900;52.710;6.438;2023-04-25T12:16:29;7.97;;;1.58;;
55003;SDS011;40900;52.710;6.438;2023-04-25T12:18:55;7.90;;;1.58;;
55003;SDS011;40900;52.710;6.438;2023-04-25T12:21:22;8.15;;;1.75;;
55003;SDS011;40900;52.710;6.438;2023-04-25T12:23:48;9.10;;;2.00;;
55003;SDS011;40900;52.710;6.438;2023-04-25T12:26:14;6.35;;;1.58;;
55003;SDS011;40900;52.710;6.438;2023-04-25T12:28:44;7.53;;;1.92;;
55003;SDS011;40900;52.710;6.438;2023-04-25T12:31:12;8.65;;;2.25;;
55003;SDS011;40900;52.710;6.438;2023-04-25T12:33:40;7.15;;;1.77;;
55003;SDS011;40900;52.710;6.438;2023-04-25T12:36:07;11.45;;;2.42;;
55003;SDS011;40900;52.710;6.438;2023-04-25T12:38:38;8.80;;;1.85;;
55003;SDS011;40900;52.710;6.438;2023-04-25T12:41:05;6.78;;;1.73;;
55003;SDS011;40900;52.710;6.438;2023-04-25T12:43:31;9.65;;;2.15;;
55003;SDS011;40900;52.710;6.438;2023-04-25T12:45:57;7.43;;;2.10;;
55003;SDS011;40900;52.710;6.438;2023-04-25T12:48:22;6.95;;;1.95;;
55003;SDS011;40900;52.710;6.438;2023-04-25T12:50:49;6.70;;;1.83;;
55003;SDS011;40900;52.710;6.438;2023-04-25T12:53:16;5.03;;;1.60;;
55003;SDS011;40900;52.710;6.438;2023-04-25T12:55:43;6.78;;;1.75;;
55003;SDS011;40900;52.710;6.438;2023-04-25T12:58:13;5.35;;;1.63;;
55003;SDS011;40900;52.710;6.438;2023-04-25T13:00:39;7.13;;;1.73;;
55003;SDS011;40900;52.710;6.438;2023-04-25T13:03:04;6.25;;;1.90;;
55003;SDS011;40900;52.710;6.438;2023-04-25T13:05:30;8.30;;;1.70;;
55003;SDS011;40900;52.710;6.438;2023-04-25T13:07:57;12.18;;;2.13;;
55003;SDS011;40900;52.710;6.438;2023-04-25T13:10:24;9.55;;;2.10;;
55003;SDS011;40900;52.710;6.438;2023-04-25T13:12:50;8.50;;;2.00;;
55003;SDS011;40900;52.710;6.438;2023-04-25T13:15:15;9.73;;;1.73;;
55003;SDS011;40900;52.710;6.438;2023-04-25T13:17:41;5.45;;;1.73;;
55003;SDS011;40900;52.710;6.438;2023-04-25T13:20:08;7.10;;;1.92;;
55003;SDS011;40900;52.710;6.438;2023-04-25T13:22:38;7.35;;;1.70;;
55003;SDS011;40900;52.710;6.438;2023-04-25T13:25:05;7.50;;;1.95;;
55003;SDS011;40900;52.710;6.438;2023-04-25T13:27:32;8.18;;;1.90;;
55003;SDS011;40900;52.710;6.438;2023-04-25T13:30:05;8.20;;;2.03;;
55003;SDS011;40900;52.710;6.438;2023-04-25T13:35:03;9.18;;;2.30;;
55003;SDS011;40900;52.710;6.438;2023-04-25T13:37:30;6.93;;;1.98;;
55003;SDS011;40900;52.710;6.438;2023-04-25T13:39:58;9.73;;;2.15;;
55003;SDS011;40900;52.710;6.438;2023-04-25T13:42:25;12.23;;;2.47;;
55003;SDS011;40900;52.710;6.438;2023-04-25T13:44:55;10.63;;;2.25;;
55003;SDS011;40900;52.710;6.438;2023-04-25T13:47:25;13.30;;;1.88;;
55003;SDS011;40900;52.710;6.438;2023-04-25T13:49:51;10.07;;;2.30;;
55003;SDS011;40900;52.710;6.438;2023-04-25T13:52:17;8.50;;;1.70;;
55003;SDS011;40900;52.710;6.438;2023-04-25T13:54:43;10.05;;;2.53;;
55003;SDS011;40900;52.710;6.438;2023-04-25T13:57:09;9.57;;;2.65;;
55003;SDS011;40900;52.710;6.438;2023-04-25T13:59:36;8.75;;;2.33;;
55003;SDS011;40900;52.710;6.438;2023-04-25T14:02:02;13.18;;;2.30;;
55003;SDS011;40900;52.710;6.438;2023-04-25T14:04:27;9.50;;;2.17;;
55003;SDS011;40900;52.710;6.438;2023-04-25T14:06:53;8.60;;;1.70;;
55003;SDS011;40900;52.710;6.438;2023-04-25T14:09:20;10.15;;;2.30;;
55003;SDS011;40900;52.710;6.438;2023-04-25T14:11:50;6.43;;;1.50;;
55003;SDS011;40900;52.710;6.438;2023-04-25T14:14:17;8.48;;;1.85;;
55003;SDS011;40900;52.710;6.438;2023-04-25T14:16:44;6.47;;;1.85;;
55003;SDS011;40900;52.710;6.438;2023-04-25T14:19:09;10.43;;;2.10;;
55003;SDS011;40900;52.710;6.438;2023-04-25T14:21:35;8.00;;;1.80;;
55003;SDS011;40900;52.710;6.438;2023-04-25T14:24:01;6.45;;;1.50;;
55003;SDS011;40900;52.710;6.438;2023-04-25T14:26:26;6.15;;;1.70;;
55003;SDS011;40900;52.710;6.438;2023-04-25T14:28:52;12.18;;;1.88;;
55003;SDS011;40900;52.710;6.438;2023-04-25T14:31:18;14.50;;;1.60;;
55003;SDS011;40900;52.710;6.438;2023-04-25T14:33:44;8.65;;;1.98;;
55003;SDS011;40900;52.710;6.438;2023-04-25T14:36:10;7.65;;;2.42;;
55003;SDS011;40900;52.710;6.438;2023-04-25T14:38:36;5.70;;;1.67;;
55003;SDS011;40900;52.710;6.438;2023-04-25T14:41:03;8.38;;;1.92;;
55003;SDS011;40900;52.710;6.438;2023-04-25T14:43:28;8.07;;;1.50;;
55003;SDS011;40900;52.710;6.438;2023-04-25T14:45:54;7.45;;;1.55;;
55003;SDS011;40900;52.710;6.438;2023-04-25T14:48:20;7.32;;;1.70;;
55003;SDS011;40900;52.710;6.438;2023-04-25T14:50:46;7.32;;;1.70;;
55003;SDS011;40900;52.710;6.438;2023-04-25T14:53:12;7.75;;;1.60;;
55003;SDS011;40900;52.710;6.438;2023-04-25T14:55:38;12.25;;;2.10;;